sensor_id;sensor_type;location;lat;lon;timestamp;P1;durP1;ratioP1;P2;durP2;ratioP2
5674;SDS011;2860;54.284;10.158;2023-11-22T00:00:06;4.70;;;4.30;;
5674;SDS011;2860;54.284;10.158;2023-11-22T00:02:35;4.15;;;3.85;;
5674;SDS011;2860;54.284;10.158;2023-11-22T00:05:02;4.82;;;4.30;;
5674;SDS011;2860;54.284;10.158;2023-11-22T00:07:28;5.65;;;3.58;;
5674;SDS011;2860;54.284;10.158;2023-11-22T00:09:54;4.57;;;4.07;;
5674;SDS011;2860;54.284;10.158;2023-11-22T00:12:20;4.57;;;4.22;;
5674;SDS011;2860;54.284;10.158;2023-11-22T00:14:45;5.13;;;4.72;;
5674;SDS011;2860;54.284;10.158;2023-11-22T00:17:12;4.25;;;3.95;;
5674;SDS011;2860;54.284;10.158;2023-11-22T00:19:37;4.93;;;3.97;;
5674;SDS011;2860;54.284;10.158;2023-11-22T00:22:03;3.72;;;3.58;;
5674;SDS011;2860;54.284;10.158;2023-11-22T00:24:36;7.20;;;3.95;;
5674;SDS011;2860;54.284;10.158;2023-11-22T00:27:02;5.07;;;4.43;;
5674;SDS011;2860;54.284;10.158;2023-11-22T00:29:28;4.70;;;4.43;;
5674;SDS011;2860;54.284;10.158;2023-11-22T00:31:53;3.95;;;3.42;;
5674;SDS011;2860;54.284;10.158;2023-11-22T00:34:19;4.30;;;3.67;;
5674;SDS011;2860;54.284;10.158;2023-11-22T00:36:44;4.63;;;4.22;;
5674;SDS011;2860;54.284;10.158;2023-11-22T00:39:10;5.15;;;4.80;;
5674;SDS011;2860;54.284;10.158;2023-11-22T00:41:38;5.15;;;4.90;;
5674;SDS011;2860;54.284;10.158;2023-11-22T00:44:04;5.30;;;4.80;;
5674;SDS011;2860;54.284;10.158;2023-11-22T00:46:31;4.50;;;4.00;;
5674;SDS011;2860;54.284;10.158;2023-11-22T00:48:57;5.22;;;4.78;;
5674;SDS011;2860;54.284;10.158;2023-11-22T00:51:22;5.57;;;4.85;;
5674;SDS011;2860;54.284;10.158;2023-11-22T00:53:48;7.97;;;5.22;;
5674;SDS011;2860;54.284;10.158;2023-11-22T00:56:14;5.00;;;4.70;;
5674;SDS011;2860;54.284;10.158;2023-11-22T00:58:40;4.63;;;4.20;;
5674;SDS011;2860;54.284;10.158;2023-11-22T01:01:06;6.15;;;5.22;;
5674;SDS011;2860;54.284;10.158;2023-11-22T01:03:31;4.88;;;4.40;;
5674;SDS011;2860;54.284;10.158;2023-11-22T01:05:57;6.82;;;4.88;;
5674;SDS011;2860;54.284;10.158;2023-11-22T01:08:22;5.30;;;4.85;;
5674;SDS011;2860;54.284;10.158;2023-11-22T01:10:48;5.82;;;5.43;;
5674;SDS011;2860;54.284;10.158;2023-11-22T01:13:14;5.65;;;5.10;;
5674;SDS011;2860;54.284;10.158;2023-11-22T01:15:39;4.82;;;4.35;;
5674;SDS011;2860;54.284;10.158;2023-11-22T01:18:06;4.65;;;4.45;;
5674;SDS011;2860;54.284;10.158;2023-11-22T01:20:32;6.28;;;5.07;;
5674;SDS011;2860;54.284;10.158;2023-11-22T01:22:57;5.78;;;5.30;;
5674;SDS011;2860;54.284;10.158;2023-11-22T01:25:23;5.13;;;4.65;;
5674;SDS011;2860;54.284;10.158;2023-11-22T01:27:48;5.07;;;4.60;;
5674;SDS011;2860;54.284;10.158;2023-11-22T01:30:14;5.82;;;5.38;;
5674;SDS011;2860;54.284;10.158;2023-11-22T01:32:39;6.70;;;4.55;;
5674;SDS011;2860;54.284;10.158;2023-11-22T01:35:05;4.53;;;4.22;;
5674;SDS011;2860;54.284;10.158;2023-11-22T01:37:31;8.55;;;4.75;;
5674;SDS011;2860;54.284;10.158;2023-11-22T01:39:57;5.70;;;5.20;;
5674;SDS011;2860;54.284;10.158;2023-11-22T01:42:23;8.02;;;5.25;;
5674;SDS011;2860;54.284;10.158;2023-11-22T01:44:50;4.95;;;4.65;;
5674;SDS011;2860;54.284;10.158;2023-11-22T01:47:17;4.63;;;4.30;;
5674;SDS011;2860;54.284;10.158;2023-11-22T01:49:43;4.22;;;3.85;;
5674;SDS011;2860;54.284;10.158;2023-11-22T01:52:09;6.45;;;4.10;;
5674;SDS011;2860;54.284;10.158;2023-11-22T01:54:35;6.35;;;4.70;;
5674;SDS011;2860;54.284;10.158;2023-11-22T01:57:01;6.30;;;3.88;;
5674;SDS011;2860;54.284;10.158;2023-11-22T01:59:27;5.38;;;4.80;;
5674;SDS011;2860;54.284;10.158;2023-11-22T02:01:54;4.35;;;3.95;;
5674;SDS011;2860;54.284;10.158;2023-11-22T02:04:20;7.85;;;4.65;;
5674;SDS011;2860;54.284;10.158;2023-11-22T02:06:46;12.68;;;4.45;;
5674;SDS011;2860;54.284;10.158;2023-11-22T02:09:12;5.72;;;3.67;;
5674;SDS011;2860;54.284;10.158;2023-11-22T02:11:40;4.85;;;3.65;;
5674;SDS011;2860;54.284;10.158;2023-11-22T02:14:07;4.57;;;3.85;;
5674;SDS011;2860;54.284;10.158;2023-11-22T02:16:33;7.22;;;4.78;;
5674;SDS011;2860;54.284;10.158;2023-11-22T02:18:59;4.22;;;3.83;;
5674;SDS011;2860;54.284;10.158;2023-11-22T02:21:25;5.85;;;4.82;;
5674;SDS011;2860;54.284;10.158;2023-11-22T02:23:51;3.60;;;3.47;;
5674;SDS011;2860;54.284;10.158;2023-11-22T02:26:16;11.23;;;4.35;;
5674;SDS011;2860;54.284;10.158;2023-11-22T02:28:45;3.90;;;3.55;;
5674;SDS011;2860;54.284;10.158;2023-11-22T02:31:10;4.05;;;3.75;;
5674;SDS011;2860;54.284;10.158;2023-11-22T02:33:36;3.78;;;3.20;;
5674;SDS011;2860;54.284;10.158;2023-11-22T02:36:01;6.32;;;3.60;;
5674;SDS011;2860;54.284;10.158;2023-11-22T02:38:27;3.97;;;2.60;;
5674;SDS011;2860;54.284;10.158;2023-11-22T02:40:53;4.22;;;2.78;;
5674;SDS011;2860;54.284;10.158;2023-11-22T02:43:19;4.22;;;4.03;;
5674;SDS011;2860;54.284;10.158;2023-11-22T02:45:45;4.22;;;3.35;;
5674;SDS011;2860;54.284;10.158;2023-11-22T02:48:11;3.38;;;3.17;;
5674;SDS011;2860;54.284;10.158;2023-11-22T02:50:36;3.63;;;3.08;;
5674;SDS011;2860;54.284;10.158;2023-11-22T02:53:02;3.08;;;2.97;;
5674;SDS011;2860;54.284;10.158;2023-11-22T02:55:28;3.13;;;2.92;;
5674;SDS011;2860;54.284;10.158;2023-11-22T02:57:54;2.70;;;2.60;;
5674;SDS011;2860;54.284;10.158;2023-11-22T03:00:20;2.92;;;2.72;;
5674;SDS011;2860;54.284;10.158;2023-11-22T03:02:46;2.95;;;2.75;;
5674;SDS011;2860;54.284;10.158;2023-11-22T03:05:12;3.58;;;3.30;;
5674;SDS011;2860;54.284;10.158;2023-11-22T03:07:39;7.72;;;2.97;;
5674;SDS011;2860;54.284;10.158;2023-11-22T03:10:06;3.22;;;3.03;;
5674;SDS011;2860;54.284;10.158;2023-11-22T03:12:32;3.13;;;3.03;;
5674;SDS011;2860;54.284;10.158;2023-11-22T03:15:13;7.00;;;2.72;;
5674;SDS011;2860;54.284;10.158;2023-11-22T03:17:39;3.20;;;2.97;;
5674;SDS011;2860;54.284;10.158;2023-11-22T03:20:04;3.42;;;2.78;;
5674;SDS011;2860;54.284;10.158;2023-11-22T03:22:34;4.15;;;3.72;;
5674;SDS011;2860;54.284;10.158;2023-11-22T03:25:01;8.73;;;4.22;;
5674;SDS011;2860;54.284;10.158;2023-11-22T03:27:27;3.33;;;3.03;;
5674;SDS011;2860;54.284;10.158;2023-11-22T03:29:53;2.65;;;2.55;;
5674;SDS011;2860;54.284;10.158;2023-11-22T03:32:18;3.38;;;3.17;;
5674;SDS011;2860;54.284;10.158;2023-11-22T03:34:44;3.72;;;3.53;;
5674;SDS011;2860;54.284;10.158;2023-11-22T03:37:09;2.95;;;2.85;;
5674;SDS011;2860;54.284;10.158;2023-11-22T03:39:35;3.47;;;3.22;;
5674;SDS011;2860;54.284;10.158;2023-11-22T03:42:01;3.60;;;3.40;;
5674;SDS011;2860;54.284;10.158;2023-11-22T03:44:27;3.35;;;3.17;;
5674;SDS011;2860;54.284;10.158;2023-11-22T03:46:53;3.10;;;3.00;;
5674;SDS011;2860;54.284;10.158;2023-11-22T03:49:19;7.13;;;3.08;;
5674;SDS011;2860;54.284;10.158;2023-11-22T03:51:44;3.63;;;3.33;;
5674;SDS011;2860;54.284;10.158;2023-11-22T03:54:11;5.22;;;3.53;;
5674;SDS011;2860;54.284;10.158;2023-11-22T03:56:37;5.88;;;3.42;;
5674;SDS011;2860;54.284;10.158;2023-11-22T03:59:03;4.60;;;3.40;;
5674;SDS011;2860;54.284;10.158;2023-11-22T04:01:28;4.47;;;3.25;;
5674;SDS011;2860;54.284;10.158;2023-11-22T04:03:54;2.85;;;2.70;;
5674;SDS011;2860;54.284;10.158;2023-11-22T04:06:20;3.60;;;3.00;;
5674;SDS011;2860;54.284;10.158;2023-11-22T04:08:46;3.92;;;3.63;;
5674;SDS011;2860;54.284;10.158;2023-11-22T04:11:12;3.72;;;3.53;;
5674;SDS011;2860;54.284;10.158;2023-11-22T04:13:38;4.82;;;3.90;;
5674;SDS011;2860;54.284;10.158;2023-11-22T04:16:04;4.45;;;4.15;;
5674;SDS011;2860;54.284;10.158;2023-11-22T04:18:33;8.02;;;4.13;;
5674;SDS011;2860;54.284;10.158;2023-11-22T04:21:00;4.78;;;4.35;;
5674;SDS011;2860;54.284;10.158;2023-11-22T04:23:26;4.50;;;4.20;;
5674;SDS011;2860;54.284;10.158;2023-11-22T04:25:51;3.70;;;3.50;;
5674;SDS011;2860;54.284;10.158;2023-11-22T04:28:17;4.78;;;4.40;;
5674;SDS011;2860;54.284;10.158;2023-11-22T04:30:43;5.55;;;4.70;;
5674;SDS011;2860;54.284;10.158;2023-11-22T04:33:08;4.45;;;4.03;;
5674;SDS011;2860;54.284;10.158;2023-11-22T04:35:34;4.30;;;4.05;;
5674;SDS011;2860;54.284;10.158;2023-11-22T04:38:01;7.78;;;4.63;;
5674;SDS011;2860;54.284;10.158;2023-11-22T04:40:28;5.80;;;5.25;;
5674;SDS011;2860;54.284;10.158;2023-11-22T04:42:54;5.47;;;5.07;;
5674;SDS011;2860;54.284;10.158;2023-11-22T04:45:20;12.18;;;5.05;;
5674;SDS011;2860;54.284;10.158;2023-11-22T04:47:45;5.90;;;5.32;;
5674;SDS011;2860;54.284;10.158;2023-11-22T04:50:10;6.38;;;5.75;;
5674;SDS011;2860;54.284;10.158;2023-11-22T04:52:36;6.65;;;6.15;;
5674;SDS011;2860;54.284;10.158;2023-11-22T04:55:01;6.75;;;6.15;;
5674;SDS011;2860;54.284;10.158;2023-11-22T04:57:29;6.80;;;6.25;;
5674;SDS011;2860;54.284;10.158;2023-11-22T04:59:54;10.98;;;7.05;;
5674;SDS011;2860;54.284;10.158;2023-11-22T05:02:20;5.88;;;5.55;;
5674;SDS011;2860;54.284;10.158;2023-11-22T05:04:46;8.18;;;6.50;;
5674;SDS011;2860;54.284;10.158;2023-11-22T05:07:13;8.40;;;6.18;;
5674;SDS011;2860;54.284;10.158;2023-11-22T05:09:39;6.85;;;6.25;;
5674;SDS011;2860;54.284;10.158;2023-11-22T05:12:05;8.80;;;6.22;;
5674;SDS011;2860;54.284;10.158;2023-11-22T05:14:31;9.23;;;6.25;;
5674;SDS011;2860;54.284;10.158;2023-11-22T05:16:56;7.80;;;6.20;;
5674;SDS011;2860;54.284;10.158;2023-11-22T05:19:22;6.45;;;5.65;;
5674;SDS011;2860;54.284;10.158;2023-11-22T05:21:47;6.85;;;5.68;;
5674;SDS011;2860;54.284;10.158;2023-11-22T05:24:13;6.40;;;5.70;;
5674;SDS011;2860;54.284;10.158;2023-11-22T05:26:40;11.60;;;6.20;;
5674;SDS011;2860;54.284;10.158;2023-11-22T05:29:05;16.65;;;7.18;;
5674;SDS011;2860;54.284;10.158;2023-11-22T05:31:31;10.30;;;6.45;;
5674;SDS011;2860;54.284;10.158;2023-11-22T05:33:56;6.88;;;6.22;;
5674;SDS011;2860;54.284;10.158;2023-11-22T05:36:22;9.07;;;6.38;;
5674;SDS011;2860;54.284;10.158;2023-11-22T05:38:47;6.78;;;5.20;;
5674;SDS011;2860;54.284;10.158;2023-11-22T05:41:13;9.85;;;6.38;;
5674;SDS011;2860;54.284;10.158;2023-11-22T05:43:38;8.15;;;7.43;;
5674;SDS011;2860;54.284;10.158;2023-11-22T05:46:06;13.35;;;7.75;;
5674;SDS011;2860;54.284;10.158;2023-11-22T05:48:32;7.97;;;7.20;;
5674;SDS011;2860;54.284;10.158;2023-11-22T05:50:59;10.00;;;6.25;;
5674;SDS011;2860;54.284;10.158;2023-11-22T05:53:24;9.38;;;7.25;;
5674;SDS011;2860;54.284;10.158;2023-11-22T05:55:50;13.55;;;7.57;;
5674;SDS011;2860;54.284;10.158;2023-11-22T05:58:16;10.23;;;6.88;;
5674;SDS011;2860;54.284;10.158;2023-11-22T06:00:42;11.63;;;7.15;;
5674;SDS011;2860;54.284;10.158;2023-11-22T06:03:09;11.05;;;7.15;;
5674;SDS011;2860;54.284;10.158;2023-11-22T06:05:35;12.93;;;7.50;;
5674;SDS011;2860;54.284;10.158;2023-11-22T06:08:00;14.52;;;7.63;;
5674;SDS011;2860;54.284;10.158;2023-11-22T06:10:26;12.95;;;7.75;;
5674;SDS011;2860;54.284;10.158;2023-11-22T06:12:51;10.85;;;8.25;;
5674;SDS011;2860;54.284;10.158;2023-11-22T06:15:17;13.98;;;7.32;;
5674;SDS011;2860;54.284;10.158;2023-11-22T06:17:45;27.27;;;9.05;;
5674;SDS011;2860;54.284;10.158;2023-11-22T06:20:12;21.00;;;9.48;;
5674;SDS011;2860;54.284;10.158;2023-11-22T06:22:38;19.92;;;9.63;;
5674;SDS011;2860;54.284;10.158;2023-11-22T06:25:06;21.23;;;9.25;;
5674;SDS011;2860;54.284;10.158;2023-11-22T06:27:38;18.05;;;9.75;;
5674;SDS011;2860;54.284;10.158;2023-11-22T06:30:04;15.98;;;9.02;;
5674;SDS011;2860;54.284;10.158;2023-11-22T06:32:31;15.75;;;9.65;;
5674;SDS011;2860;54.284;10.158;2023-11-22T06:34:57;15.07;;;9.57;;
5674;SDS011;2860;54.284;10.158;2023-11-22T06:37:22;20.55;;;10.07;;
5674;SDS011;2860;54.284;10.158;2023-11-22T06:39:48;16.75;;;9.60;;
5674;SDS011;2860;54.284;10.158;2023-11-22T06:42:13;15.38;;;9.05;;
5674;SDS011;2860;54.284;10.158;2023-11-22T06:44:39;20.35;;;9.82;;
5674;SDS011;2860;54.284;10.158;2023-11-22T06:47:05;23.80;;;11.07;;
5674;SDS011;2860;54.284;10.158;2023-11-22T06:49:32;19.10;;;10.82;;
5674;SDS011;2860;54.284;10.158;2023-11-22T06:51:58;17.63;;;10.07;;
5674;SDS011;2860;54.284;10.158;2023-11-22T06:54:23;19.95;;;10.98;;
5674;SDS011;2860;54.284;10.158;2023-11-22T06:56:49;15.07;;;9.13;;
5674;SDS011;2860;54.284;10.158;2023-11-22T06:59:16;24.05;;;10.85;;
5674;SDS011;2860;54.284;10.158;2023-11-22T07:01:42;20.27;;;11.30;;
5674;SDS011;2860;54.284;10.158;2023-11-22T07:04:07;18.90;;;11.07;;
5674;SDS011;2860;54.284;10.158;2023-11-22T07:06:33;17.30;;;9.75;;
5674;SDS011;2860;54.284;10.158;2023-11-22T07:08:58;16.38;;;9.90;;
5674;SDS011;2860;54.284;10.158;2023-11-22T07:11:24;18.23;;;9.80;;
5674;SDS011;2860;54.284;10.158;2023-11-22T07:13:51;12.48;;;8.95;;
5674;SDS011;2860;54.284;10.158;2023-11-22T07:16:17;14.45;;;9.20;;
5674;SDS011;2860;54.284;10.158;2023-11-22T07:18:44;14.35;;;8.63;;
5674;SDS011;2860;54.284;10.158;2023-11-22T07:21:10;17.52;;;9.40;;
5674;SDS011;2860;54.284;10.158;2023-11-22T07:23:36;11.90;;;8.63;;
5674;SDS011;2860;54.284;10.158;2023-11-22T07:26:03;12.65;;;9.30;;
5674;SDS011;2860;54.284;10.158;2023-11-22T07:28:28;15.00;;;8.00;;
5674;SDS011;2860;54.284;10.158;2023-11-22T07:30:55;11.85;;;8.20;;
5674;SDS011;2860;54.284;10.158;2023-11-22T07:33:21;13.95;;;8.00;;
5674;SDS011;2860;54.284;10.158;2023-11-22T07:35:47;12.75;;;8.15;;
5674;SDS011;2860;54.284;10.158;2023-11-22T07:38:13;9.93;;;8.00;;
5674;SDS011;2860;54.284;10.158;2023-11-22T07:40:39;9.25;;;8.20;;
5674;SDS011;2860;54.284;10.158;2023-11-22T07:43:04;9.40;;;7.93;;
5674;SDS011;2860;54.284;10.158;2023-11-22T07:45:31;13.10;;;8.25;;
5674;SDS011;2860;54.284;10.158;2023-11-22T07:47:57;10.27;;;7.57;;
5674;SDS011;2860;54.284;10.158;2023-11-22T07:50:24;14.52;;;7.82;;
5674;SDS011;2860;54.284;10.158;2023-11-22T07:52:52;11.90;;;7.90;;
5674;SDS011;2860;54.284;10.158;2023-11-22T07:55:18;10.60;;;7.25;;
5674;SDS011;2860;54.284;10.158;2023-11-22T07:57:44;9.07;;;7.40;;
5674;SDS011;2860;54.284;10.158;2023-11-22T08:00:10;11.93;;;8.38;;
5674;SDS011;2860;54.284;10.158;2023-11-22T08:02:37;21.80;;;7.70;;
5674;SDS011;2860;54.284;10.158;2023-11-22T08:05:04;8.70;;;7.22;;
5674;SDS011;2860;54.284;10.158;2023-11-22T08:07:33;11.65;;;8.18;;
5674;SDS011;2860;54.284;10.158;2023-11-22T08:10:06;10.32;;;7.20;;
5674;SDS011;2860;54.284;10.158;2023-11-22T08:12:44;10.05;;;7.30;;
5674;SDS011;2860;54.284;10.158;2023-11-22T08:15:14;10.55;;;7.70;;
5674;SDS011;2860;54.284;10.158;2023-11-22T08:17:41;13.60;;;8.85;;
5674;SDS011;2860;54.284;10.158;2023-11-22T08:20:08;11.30;;;8.02;;
5674;SDS011;2860;54.284;10.158;2023-11-22T08:22:38;10.32;;;8.30;;
5674;SDS011;2860;54.284;10.158;2023-11-22T08:25:05;9.13;;;7.10;;
5674;SDS011;2860;54.284;10.158;2023-11-22T08:27:34;7.53;;;6.25;;
5674;SDS011;2860;54.284;10.158;2023-11-22T08:29:59;6.05;;;5.55;;
5674;SDS011;2860;54.284;10.158;2023-11-22T08:32:30;8.73;;;5.50;;
5674;SDS011;2860;54.284;10.158;2023-11-22T08:34:58;12.38;;;6.07;;
5674;SDS011;2860;54.284;10.158;2023-11-22T08:37:23;6.80;;;6.15;;
5674;SDS011;2860;54.284;10.158;2023-11-22T08:39:49;7.85;;;5.20;;
5674;SDS011;2860;54.284;10.158;2023-11-22T08:42:15;6.85;;;5.50;;
5674;SDS011;2860;54.284;10.158;2023-11-22T08:44:40;7.35;;;6.57;;
5674;SDS011;2860;54.284;10.158;2023-11-22T08:47:06;7.68;;;6.97;;
5674;SDS011;2860;54.284;10.158;2023-11-22T08:49:33;5.55;;;5.15;;
5674;SDS011;2860;54.284;10.158;2023-11-22T08:51:59;5.47;;;5.07;;
5674;SDS011;2860;54.284;10.158;2023-11-22T08:54:24;5.53;;;4.60;;
5674;SDS011;2860;54.284;10.158;2023-11-22T08:56:53;6.53;;;5.38;;
5674;SDS011;2860;54.284;10.158;2023-11-22T08:59:21;4.95;;;4.57;;
5674;SDS011;2860;54.284;10.158;2023-11-22T09:01:47;7.95;;;6.18;;
5674;SDS011;2860;54.284;10.158;2023-11-22T09:04:12;7.03;;;5.35;;
5674;SDS011;2860;54.284;10.158;2023-11-22T09:06:38;10.18;;;5.53;;
5674;SDS011;2860;54.284;10.158;2023-11-22T09:09:04;6.07;;;5.57;;
5674;SDS011;2860;54.284;10.158;2023-11-22T09:11:30;4.53;;;4.22;;
5674;SDS011;2860;54.284;10.158;2023-11-22T09:13:56;5.75;;;4.78;;
5674;SDS011;2860;54.284;10.158;2023-11-22T09:16:22;6.50;;;4.55;;
5674;SDS011;2860;54.284;10.158;2023-11-22T09:18:50;4.40;;;4.03;;
5674;SDS011;2860;54.284;10.158;2023-11-22T09:21:16;5.70;;;4.57;;
5674;SDS011;2860;54.284;10.158;2023-11-22T09:23:42;5.63;;;5.13;;
5674;SDS011;2860;54.284;10.158;2023-11-22T09:26:08;4.05;;;3.78;;
5674;SDS011;2860;54.284;10.158;2023-11-22T09:28:33;6.97;;;4.47;;
5674;SDS011;2860;54.284;10.158;2023-11-22T09:30:59;4.40;;;4.10;;
5674;SDS011;2860;54.284;10.158;2023-11-22T09:33:31;4.43;;;4.13;;
5674;SDS011;2860;54.284;10.158;2023-11-22T09:35:57;4.82;;;4.43;;
5674;SDS011;2860;54.284;10.158;2023-11-22T09:38:28;4.93;;;4.53;;
5674;SDS011;2860;54.284;10.158;2023-11-22T09:40:54;4.63;;;4.28;;
5674;SDS011;2860;54.284;10.158;2023-11-22T09:43:21;4.72;;;4.35;;
5674;SDS011;2860;54.284;10.158;2023-11-22T09:45:49;7.07;;;4.90;;
5674;SDS011;2860;54.284;10.158;2023-11-22T09:48:16;5.28;;;4.88;;
5674;SDS011;2860;54.284;10.158;2023-11-22T09:50:50;5.30;;;4.90;;
5674;SDS011;2860;54.284;10.158;2023-11-22T09:56:07;4.70;;;4.35;;
5674;SDS011;2860;54.284;10.158;2023-11-22T09:58:35;4.80;;;4.47;;
5674;SDS011;2860;54.284;10.158;2023-11-22T10:01:03;5.53;;;5.07;;
5674;SDS011;2860;54.284;10.158;2023-11-22T10:03:29;5.03;;;4.63;;
5674;SDS011;2860;54.284;10.158;2023-11-22T10:05:58;5.95;;;5.55;;
5674;SDS011;2860;54.284;10.158;2023-11-22T10:08:27;5.65;;;4.72;;
5674;SDS011;2860;54.284;10.158;2023-11-22T10:10:54;4.18;;;3.97;;
5674;SDS011;2860;54.284;10.158;2023-11-22T10:13:20;4.30;;;4.00;;
5674;SDS011;2860;54.284;10.158;2023-11-22T10:15:49;4.85;;;4.47;;
5674;SDS011;2860;54.284;10.158;2023-11-22T10:18:16;5.07;;;4.25;;
5674;SDS011;2860;54.284;10.158;2023-11-22T10:20:43;4.57;;;4.28;;
5674;SDS011;2860;54.284;10.158;2023-11-22T10:23:14;9.32;;;7.78;;
5674;SDS011;2860;54.284;10.158;2023-11-22T10:25:43;6.47;;;4.35;;
5674;SDS011;2860;54.284;10.158;2023-11-22T10:28:11;4.53;;;4.18;;
5674;SDS011;2860;54.284;10.158;2023-11-22T10:30:37;4.78;;;4.30;;
5674;SDS011;2860;54.284;10.158;2023-11-22T10:33:05;3.80;;;3.67;;
5674;SDS011;2860;54.284;10.158;2023-11-22T10:35:31;4.50;;;4.20;;
5674;SDS011;2860;54.284;10.158;2023-11-22T10:37:56;6.13;;;4.72;;
5674;SDS011;2860;54.284;10.158;2023-11-22T10:40:27;9.13;;;4.53;;
5674;SDS011;2860;54.284;10.158;2023-11-22T10:42:54;4.75;;;4.45;;
5674;SDS011;2860;54.284;10.158;2023-11-22T10:45:21;4.35;;;4.03;;
5674;SDS011;2860;54.284;10.158;2023-11-22T10:47:49;4.80;;;4.28;;
5674;SDS011;2860;54.284;10.158;2023-11-22T10:50:17;4.53;;;3.53;;
5674;SDS011;2860;54.284;10.158;2023-11-22T10:52:42;3.45;;;3.35;;
5674;SDS011;2860;54.284;10.158;2023-11-22T10:55:11;4.38;;;3.97;;
5674;SDS011;2860;54.284;10.158;2023-11-22T10:57:47;4.35;;;4.13;;
5674;SDS011;2860;54.284;10.158;2023-11-22T11:00:16;4.00;;;3.80;;
5674;SDS011;2860;54.284;10.158;2023-11-22T11:02:47;4.28;;;3.88;;
5674;SDS011;2860;54.284;10.158;2023-11-22T11:05:24;4.10;;;3.85;;
5674;SDS011;2860;54.284;10.158;2023-11-22T11:08:00;3.45;;;3.30;;
5674;SDS011;2860;54.284;10.158;2023-11-22T11:10:34;3.97;;;3.78;;
5674;SDS011;2860;54.284;10.158;2023-11-22T11:13:00;3.53;;;3.22;;
5674;SDS011;2860;54.284;10.158;2023-11-22T11:15:26;4.00;;;3.70;;
5674;SDS011;2860;54.284;10.158;2023-11-22T11:17:52;3.72;;;3.63;;
5674;SDS011;2860;54.284;10.158;2023-11-22T11:20:18;3.53;;;3.33;;
5674;SDS011;2860;54.284;10.158;2023-11-22T11:22:48;3.33;;;3.13;;
5674;SDS011;2860;54.284;10.158;2023-11-22T11:25:15;3.97;;;3.72;;
5674;SDS011;2860;54.284;10.158;2023-11-22T11:27:44;3.50;;;3.30;;
5674;SDS011;2860;54.284;10.158;2023-11-22T11:32:57;3.47;;;3.38;;
5674;SDS011;2860;54.284;10.158;2023-11-22T11:35:37;3.35;;;3.15;;
5674;SDS011;2860;54.284;10.158;2023-11-22T11:38:13;7.25;;;3.80;;
5674;SDS011;2860;54.284;10.158;2023-11-22T11:40:40;3.17;;;2.97;;
5674;SDS011;2860;54.284;10.158;2023-11-22T11:43:07;3.58;;;3.38;;
5674;SDS011;2860;54.284;10.158;2023-11-22T11:45:39;3.72;;;3.53;;
5674;SDS011;2860;54.284;10.158;2023-11-22T11:48:11;3.35;;;3.25;;
5674;SDS011;2860;54.284;10.158;2023-11-22T11:50:39;3.35;;;3.25;;
5674;SDS011;2860;54.284;10.158;2023-11-22T11:53:04;4.18;;;3.95;;
5674;SDS011;2860;54.284;10.158;2023-11-22T11:55:30;3.03;;;2.83;;
5674;SDS011;2860;54.284;10.158;2023-11-22T11:57:55;3.65;;;3.35;;
5674;SDS011;2860;54.284;10.158;2023-11-22T12:00:21;3.00;;;2.80;;
5674;SDS011;2860;54.284;10.158;2023-11-22T12:02:49;4.07;;;3.88;;
5674;SDS011;2860;54.284;10.158;2023-11-22T12:05:15;2.63;;;2.53;;
5674;SDS011;2860;54.284;10.158;2023-11-22T12:07:43;3.40;;;3.20;;
5674;SDS011;2860;54.284;10.158;2023-11-22T12:10:09;2.50;;;2.40;;
5674;SDS011;2860;54.284;10.158;2023-11-22T12:12:35;2.78;;;2.58;;
5674;SDS011;2860;54.284;10.158;2023-11-22T12:15:00;3.33;;;3.03;;
5674;SDS011;2860;54.284;10.158;2023-11-22T12:17:26;3.13;;;3.03;;
5674;SDS011;2860;54.284;10.158;2023-11-22T12:20:08;3.38;;;3.28;;
5674;SDS011;2860;54.284;10.158;2023-11-22T12:22:38;3.05;;;2.95;;
5674;SDS011;2860;54.284;10.158;2023-11-22T12:25:06;4.70;;;3.53;;
5674;SDS011;2860;54.284;10.158;2023-11-22T12:27:31;4.20;;;3.33;;
5674;SDS011;2860;54.284;10.158;2023-11-22T12:29:57;3.45;;;3.22;;
5674;SDS011;2860;54.284;10.158;2023-11-22T12:32:24;2.90;;;2.80;;
5674;SDS011;2860;54.284;10.158;2023-11-22T12:34:49;3.45;;;3.25;;
5674;SDS011;2860;54.284;10.158;2023-11-22T12:37:20;8.90;;;3.13;;
5674;SDS011;2860;54.284;10.158;2023-11-22T12:39:50;3.40;;;3.00;;
5674;SDS011;2860;54.284;10.158;2023-11-22T12:42:17;2.50;;;2.47;;
5674;SDS011;2860;54.284;10.158;2023-11-22T12:44:52;2.92;;;2.83;;
5674;SDS011;2860;54.284;10.158;2023-11-22T12:47:50;2.85;;;2.60;;
5674;SDS011;2860;54.284;10.158;2023-11-22T12:50:28;3.10;;;3.00;;
5674;SDS011;2860;54.284;10.158;2023-11-22T12:52:59;2.50;;;2.40;;
5674;SDS011;2860;54.284;10.158;2023-11-22T12:55:32;4.00;;;2.47;;
5674;SDS011;2860;54.284;10.158;2023-11-22T12:57:58;4.25;;;3.22;;
5674;SDS011;2860;54.284;10.158;2023-11-22T13:00:28;2.90;;;2.70;;
5674;SDS011;2860;54.284;10.158;2023-11-22T13:02:55;3.00;;;2.85;;
5674;SDS011;2860;54.284;10.158;2023-11-22T13:05:23;2.55;;;2.33;;
5674;SDS011;2860;54.284;10.158;2023-11-22T13:07:49;2.20;;;2.10;;
5674;SDS011;2860;54.284;10.158;2023-11-22T13:10:19;2.60;;;2.50;;
5674;SDS011;2860;54.284;10.158;2023-11-22T13:12:49;2.90;;;2.78;;
5674;SDS011;2860;54.284;10.158;2023-11-22T13:15:16;3.50;;;3.30;;
5674;SDS011;2860;54.284;10.158;2023-11-22T13:17:41;5.18;;;2.42;;
5674;SDS011;2860;54.284;10.158;2023-11-22T13:20:07;2.50;;;2.38;;
5674;SDS011;2860;54.284;10.158;2023-11-22T13:22:42;3.03;;;2.83;;
5674;SDS011;2860;54.284;10.158;2023-11-22T13:25:08;7.15;;;2.13;;
5674;SDS011;2860;54.284;10.158;2023-11-22T13:27:38;3.10;;;2.58;;
5674;SDS011;2860;54.284;10.158;2023-11-22T13:30:05;2.30;;;2.15;;
5674;SDS011;2860;54.284;10.158;2023-11-22T13:32:31;2.92;;;2.78;;
5674;SDS011;2860;54.284;10.158;2023-11-22T13:34:57;2.35;;;2.30;;
5674;SDS011;2860;54.284;10.158;2023-11-22T13:37:23;2.83;;;2.58;;
5674;SDS011;2860;54.284;10.158;2023-11-22T13:39:49;2.10;;;2.10;;
5674;SDS011;2860;54.284;10.158;2023-11-22T13:42:15;2.15;;;2.00;;
5674;SDS011;2860;54.284;10.158;2023-11-22T13:44:40;1.85;;;1.60;;
5674;SDS011;2860;54.284;10.158;2023-11-22T13:47:06;2.10;;;2.10;;
5674;SDS011;2860;54.284;10.158;2023-11-22T13:49:33;1.85;;;1.85;;
5674;SDS011;2860;54.284;10.158;2023-11-22T13:52:02;2.85;;;2.65;;
5674;SDS011;2860;54.284;10.158;2023-11-22T13:54:28;1.70;;;1.70;;
5674;SDS011;2860;54.284;10.158;2023-11-22T13:56:53;8.98;;;2.38;;
5674;SDS011;2860;54.284;10.158;2023-11-22T13:59:19;2.40;;;2.30;;
5674;SDS011;2860;54.284;10.158;2023-11-22T14:01:44;1.73;;;1.73;;
5674;SDS011;2860;54.284;10.158;2023-11-22T14:04:10;3.22;;;1.90;;
5674;SDS011;2860;54.284;10.158;2023-11-22T14:06:36;2.00;;;2.00;;
5674;SDS011;2860;54.284;10.158;2023-11-22T14:09:02;1.88;;;1.77;;
5674;SDS011;2860;54.284;10.158;2023-11-22T14:11:28;1.92;;;1.83;;
5674;SDS011;2860;54.284;10.158;2023-11-22T14:13:54;4.03;;;2.50;;
5674;SDS011;2860;54.284;10.158;2023-11-22T14:16:20;1.83;;;1.75;;
5674;SDS011;2860;54.284;10.158;2023-11-22T14:18:46;1.58;;;1.48;;
5674;SDS011;2860;54.284;10.158;2023-11-22T14:21:11;2.83;;;2.13;;
5674;SDS011;2860;54.284;10.158;2023-11-22T14:23:37;1.98;;;1.98;;
5674;SDS011;2860;54.284;10.158;2023-11-22T14:26:02;3.45;;;2.03;;
5674;SDS011;2860;54.284;10.158;2023-11-22T14:28:28;2.00;;;1.90;;
5674;SDS011;2860;54.284;10.158;2023-11-22T14:30:54;1.80;;;1.80;;
5674;SDS011;2860;54.284;10.158;2023-11-22T14:33:20;1.45;;;1.42;;
5674;SDS011;2860;54.284;10.158;2023-11-22T14:35:46;2.47;;;2.38;;
5674;SDS011;2860;54.284;10.158;2023-11-22T14:38:11;3.58;;;1.92;;
5674;SDS011;2860;54.284;10.158;2023-11-22T14:40:38;1.60;;;1.60;;
5674;SDS011;2860;54.284;10.158;2023-11-22T14:43:05;1.60;;;1.60;;
5674;SDS011;2860;54.284;10.158;2023-11-22T14:45:31;1.63;;;1.52;;
5674;SDS011;2860;54.284;10.158;2023-11-22T14:47:57;1.98;;;1.88;;
5674;SDS011;2860;54.284;10.158;2023-11-22T14:50:23;2.10;;;2.08;;
5674;SDS011;2860;54.284;10.158;2023-11-22T14:52:52;1.48;;;1.45;;
5674;SDS011;2860;54.284;10.158;2023-11-22T14:55:18;1.30;;;1.30;;
5674;SDS011;2860;54.284;10.158;2023-11-22T14:57:45;1.83;;;1.73;;
5674;SDS011;2860;54.284;10.158;2023-11-22T15:00:11;1.35;;;1.35;;